createdAt,value
2017-11-17T00:00:24.600Z,0.00
2017-11-17T00:01:24.587Z,0.00
2017-11-17T00:02:24.577Z,0.00
2017-11-17T00:03:24.564Z,0.00
2017-11-17T00:04:24.554Z,0.00
2017-11-17T00:05:24.541Z,0.00
2017-11-17T00:06:24.546Z,0.00
2017-11-17T00:07:24.520Z,0.00
2017-11-17T00:08:24.516Z,0.00
2017-11-17T00:09:24.499Z,0.00
2017-11-17T00:10:24.486Z,0.00
2017-11-17T00:11:24.478Z,0.00
2017-11-17T00:12:24.477Z,0.00
2017-11-17T00:13:24.456Z,0.00
2017-11-17T00:14:24.445Z,0.00
2017-11-17T00:15:24.441Z,0.00
2017-11-17T00:16:24.421Z,0.00
2017-11-17T00:17:24.428Z,0.00
2017-11-17T00:18:24.427Z,0.00
2017-11-17T00:19:24.391Z,0.00
2017-11-17T00:20:24.382Z,0.00
2017-11-17T00:21:24.371Z,0.00
2017-11-17T00:22:24.357Z,0.00
2017-11-17T00:23:24.363Z,0.00
2017-11-17T00:24:24.335Z,0.00
2017-11-17T00:25:24.328Z,0.00
2017-11-17T00:26:24.314Z,0.00
2017-11-17T00:27:24.304Z,0.00
2017-11-17T00:28:24.292Z,0.00
2017-11-17T00:29:24.296Z,0.00
2017-11-17T00:30:24.271Z,0.00
2017-11-17T00:31:24.262Z,0.00
2017-11-17T00:32:24.252Z,0.00
2017-11-17T00:33:24.240Z,0.00
2017-11-17T00:34:24.245Z,0.00
2017-11-17T00:35:24.228Z,0.00
2017-11-17T00:36:24.214Z,0.00
2017-11-17T00:37:24.197Z,0.00
2017-11-17T00:38:24.182Z,0.00
2017-11-17T00:39:24.174Z,0.00
2017-11-17T00:40:24.164Z,0.00
2017-11-17T00:41:24.155Z,0.00
2017-11-17T00:42:24.143Z,0.00
2017-11-17T00:43:24.130Z,0.00
2017-11-17T00:44:24.118Z,0.00
2017-11-17T00:45:24.107Z,0.00
2017-11-17T00:46:24.100Z,0.00
2017-11-17T00:47:24.087Z,0.00
2017-11-17T00:48:24.076Z,0.00
2017-11-17T00:49:24.067Z,0.00
2017-11-17T00:50:24.055Z,0.00
2017-11-17T00:51:24.044Z,0.00
2017-11-17T00:52:24.040Z,0.00
2017-11-17T00:53:24.030Z,0.00
2017-11-17T00:54:24.015Z,0.00
2017-11-17T00:55:24.003Z,0.00
2017-11-17T00:56:23.989Z,0.00
2017-11-17T00:57:23.985Z,0.00
2017-11-17T00:58:23.969Z,0.00
2017-11-17T00:59:23.959Z,0.00
2017-11-17T01:00:23.951Z,0.00
2017-11-17T01:01:23.935Z,0.00
2017-11-17T01:02:23.924Z,0.00
2017-11-17T01:03:23.915Z,0.00
2017-11-17T01:04:23.910Z,0.00
2017-11-17T01:05:23.891Z,0.00
2017-11-17T01:06:23.887Z,0.00
2017-11-17T01:07:23.872Z,0.00
2017-11-17T01:08:23.861Z,0.00
2017-11-17T01:09:23.853Z,0.00
2017-11-17T01:10:23.840Z,0.00
2017-11-17T01:11:23.827Z,0.00
2017-11-17T01:12:23.820Z,0.00
2017-11-17T01:13:23.810Z,0.00
2017-11-17T01:14:23.794Z,0.00
2017-11-17T01:15:23.783Z,0.00
2017-11-17T01:16:23.782Z,0.00
2017-11-17T01:17:23.766Z,0.00
2017-11-17T01:18:23.750Z,0.00
2017-11-17T01:19:23.738Z,0.00
2017-11-17T01:20:23.740Z,0.00
2017-11-17T01:21:23.717Z,0.00
2017-11-17T01:22:23.712Z,0.00
2017-11-17T01:23:23.698Z,0.00
2017-11-17T01:24:23.687Z,0.00
2017-11-17T01:25:23.675Z,0.00
2017-11-17T01:26:23.673Z,0.00
2017-11-17T01:27:23.653Z,0.00
2017-11-17T01:28:23.649Z,0.00
2017-11-17T01:29:23.638Z,0.00
2017-11-17T01:30:23.686Z,0.00
2017-11-17T01:31:23.609Z,0.00
2017-11-17T01:32:23.605Z,0.00
2017-11-17T01:33:23.591Z,0.00
2017-11-17T01:34:23.582Z,0.00
2017-11-17T01:35:23.573Z,0.00
2017-11-17T01:36:23.575Z,0.00
2017-11-17T01:37:23.550Z,0.00
2017-11-17T01:38:23.539Z,0.00
2017-11-17T01:39:23.533Z,0.00
2017-11-17T01:40:23.513Z,0.00
2017-11-17T01:41:23.502Z,0.00
2017-11-17T01:42:23.493Z,0.00
2017-11-17T01:43:23.486Z,0.00
2017-11-17T01:44:23.470Z,0.00
2017-11-17T01:45:23.467Z,0.00
2017-11-17T01:46:23.461Z,0.00
2017-11-17T01:47:23.439Z,0.00
2017-11-17T01:48:23.438Z,0.00
2017-11-17T01:49:23.417Z,0.00
2017-11-17T01:50:23.407Z,0.00
2017-11-17T01:51:23.395Z,0.00
2017-11-17T01:52:23.385Z,0.00
2017-11-17T01:53:23.375Z,0.00
2017-11-17T01:54:23.391Z,0.00
2017-11-17T01:55:23.352Z,0.00
2017-11-17T01:56:23.341Z,0.00
2017-11-17T01:57:23.332Z,0.00
2017-11-17T01:58:23.342Z,0.00
2017-11-17T01:59:23.315Z,0.00
2017-11-17T02:00:23.322Z,0.00
2017-11-17T02:01:23.290Z,0.00
2017-11-17T02:02:23.288Z,0.00
2017-11-17T02:03:23.284Z,0.00
2017-11-17T02:04:23.275Z,0.00
2017-11-17T02:05:23.249Z,0.00
2017-11-17T02:06:23.235Z,0.00
2017-11-17T02:07:23.225Z,0.00
2017-11-17T02:08:23.215Z,0.00
2017-11-17T02:09:23.212Z,0.00
2017-11-17T02:10:23.198Z,0.00
2017-11-17T02:11:23.188Z,0.00
2017-11-17T02:12:23.169Z,0.00
2017-11-17T02:13:23.162Z,0.00
2017-11-17T02:14:23.156Z,0.00
2017-11-17T02:15:23.147Z,0.00
2017-11-17T02:16:23.128Z,0.00
2017-11-17T02:17:23.125Z,0.00
2017-11-17T02:18:23.105Z,0.00
2017-11-17T02:19:23.099Z,0.00
2017-11-17T02:20:23.088Z,0.00
2017-11-17T02:21:23.090Z,0.00
2017-11-17T02:22:23.067Z,0.00
2017-11-17T02:23:23.067Z,0.00
2017-11-17T02:24:23.039Z,0.00
2017-11-17T02:25:23.034Z,0.00
2017-11-17T02:26:23.019Z,0.00
2017-11-17T02:27:23.008Z,0.00
2017-11-17T02:28:23.022Z,0.00
2017-11-17T02:29:22.986Z,0.00
2017-11-17T02:30:22.975Z,0.00
2017-11-17T02:31:22.965Z,0.00
2017-11-17T02:32:22.953Z,0.00
2017-11-17T02:33:22.943Z,0.00
2017-11-17T02:34:22.932Z,0.00
2017-11-17T02:35:22.923Z,0.00
2017-11-17T02:36:22.914Z,0.00
2017-11-17T02:37:22.898Z,0.00
2017-11-17T02:38:22.889Z,0.00
2017-11-17T02:39:22.879Z,0.00
2017-11-17T02:40:22.874Z,0.00
2017-11-17T02:41:22.857Z,0.00
2017-11-17T02:42:22.846Z,0.00
2017-11-17T02:43:22.834Z,0.00
2017-11-17T02:44:22.826Z,0.00
2017-11-17T02:45:22.816Z,0.00
2017-11-17T02:46:22.811Z,0.00
2017-11-17T02:47:22.798Z,0.00
2017-11-17T02:48:22.782Z,0.00
2017-11-17T02:49:22.769Z,0.00
2017-11-17T02:50:22.763Z,0.00
2017-11-17T02:51:22.749Z,0.00
2017-11-17T02:52:22.738Z,0.00
2017-11-17T02:53:22.724Z,0.00
2017-11-17T02:54:22.717Z,0.00
2017-11-17T02:55:22.709Z,0.00
2017-11-17T02:56:22.705Z,0.00
2017-11-17T02:57:22.682Z,0.00
2017-11-17T02:58:22.673Z,0.00
2017-11-17T02:59:22.665Z,0.00
2017-11-17T03:00:43.661Z,0.00
2017-11-17T03:01:22.637Z,0.00
2017-11-17T03:02:22.625Z,0.00
2017-11-17T03:03:22.615Z,0.00
2017-11-17T03:04:22.611Z,0.00
2017-11-17T03:05:22.593Z,0.00
2017-11-17T03:06:22.581Z,0.00
2017-11-17T03:07:22.577Z,0.00
2017-11-17T03:08:22.560Z,0.00
2017-11-17T03:09:22.610Z,0.00
2017-11-17T03:10:22.539Z,0.00
2017-11-17T03:11:22.541Z,0.00
2017-11-17T03:12:22.544Z,0.00
2017-11-17T03:13:22.516Z,0.00
2017-11-17T03:14:22.496Z,0.00
2017-11-17T03:15:22.483Z,0.00
2017-11-17T03:16:22.480Z,0.00
2017-11-17T03:17:22.464Z,0.00
2017-11-17T03:18:22.452Z,0.00
2017-11-17T03:19:22.445Z,0.00
2017-11-17T03:20:22.428Z,0.00
2017-11-17T03:21:22.419Z,0.00
2017-11-17T03:22:22.425Z,0.00
2017-11-17T03:23:22.398Z,0.00
2017-11-17T03:24:22.387Z,0.00
2017-11-17T03:25:22.378Z,0.00
2017-11-17T03:26:22.372Z,0.00
2017-11-17T03:27:22.351Z,0.00
2017-11-17T03:28:22.339Z,0.00
2017-11-17T03:29:22.331Z,0.00
2017-11-17T03:30:22.324Z,0.00
2017-11-17T03:31:22.324Z,0.00
2017-11-17T03:32:22.294Z,0.00
2017-11-17T03:33:22.288Z,0.00
2017-11-17T03:34:22.288Z,0.00
2017-11-17T03:35:22.260Z,0.00
2017-11-17T03:36:22.262Z,0.00
2017-11-17T03:37:22.238Z,0.00
2017-11-17T03:38:22.231Z,0.00
2017-11-17T03:39:22.231Z,0.00
2017-11-17T03:40:22.207Z,0.00
2017-11-17T03:41:22.197Z,0.00
2017-11-17T03:42:22.188Z,0.00
2017-11-17T03:43:22.171Z,0.00
2017-11-17T03:44:22.165Z,0.00
2017-11-17T03:45:22.154Z,0.00
2017-11-17T03:46:22.148Z,0.00
2017-11-17T03:47:22.129Z,0.00
2017-11-17T03:48:22.123Z,0.00
2017-11-17T03:49:22.106Z,0.00
2017-11-17T03:50:22.096Z,0.00
2017-11-17T03:51:22.084Z,0.00
2017-11-17T03:52:22.069Z,0.00
2017-11-17T03:53:22.064Z,0.00
2017-11-17T03:54:22.045Z,0.00
2017-11-17T03:55:22.036Z,0.00
2017-11-17T03:56:22.022Z,0.00
2017-11-17T03:57:22.017Z,0.00
2017-11-17T03:58:21.999Z,0.00
2017-11-17T03:59:21.989Z,0.00
2017-11-17T04:00:21.976Z,0.00
2017-11-17T04:01:21.968Z,0.00
2017-11-17T04:02:21.968Z,0.00
2017-11-17T04:03:21.941Z,0.00
2017-11-17T04:04:21.933Z,0.00
2017-11-17T04:05:21.933Z,0.00
2017-11-17T04:06:21.913Z,0.00
2017-11-17T04:07:21.911Z,0.00
2017-11-17T04:08:21.891Z,0.00
2017-11-17T04:09:21.878Z,0.00
2017-11-17T04:10:21.865Z,0.00
2017-11-17T04:11:21.851Z,0.00
2017-11-17T04:12:21.835Z,0.00
2017-11-17T04:13:21.825Z,0.00
2017-11-17T04:14:21.849Z,0.00
2017-11-17T04:15:21.802Z,0.00
2017-11-17T04:16:21.798Z,0.00
2017-11-17T04:17:21.778Z,0.00
2017-11-17T04:18:21.784Z,0.00
2017-11-17T04:19:21.758Z,0.00
2017-11-17T04:20:21.743Z,0.00
2017-11-17T04:21:21.730Z,0.00
2017-11-17T04:22:21.721Z,0.00
2017-11-17T04:23:21.710Z,0.00
2017-11-17T04:24:21.703Z,0.00
2017-11-17T04:25:21.683Z,0.00
2017-11-17T04:26:21.673Z,0.00
2017-11-17T04:27:21.704Z,0.00
2017-11-17T04:28:21.648Z,0.00
2017-11-17T04:29:21.661Z,0.00
2017-11-17T04:30:21.626Z,0.00
2017-11-17T04:31:21.617Z,0.00
2017-11-17T04:32:21.604Z,0.00
2017-11-17T04:33:21.589Z,0.00
2017-11-17T04:34:21.580Z,0.00
2017-11-17T04:35:21.595Z,0.00
2017-11-17T04:36:21.575Z,0.00
2017-11-17T04:37:21.541Z,0.00
2017-11-17T04:38:21.532Z,0.00
2017-11-17T04:39:21.520Z,0.00
2017-11-17T04:40:21.508Z,0.00
2017-11-17T04:41:21.493Z,0.00
2017-11-17T04:42:21.483Z,0.00
2017-11-17T04:43:21.470Z,0.00
2017-11-17T04:44:21.457Z,0.00
2017-11-17T04:45:21.453Z,0.00
2017-11-17T04:46:21.433Z,0.00
2017-11-17T04:47:21.429Z,0.00
2017-11-17T04:48:21.416Z,0.00
2017-11-17T04:49:21.400Z,0.00
2017-11-17T04:50:21.386Z,0.00
2017-11-17T04:51:21.374Z,0.00
2017-11-17T04:52:21.363Z,0.00
2017-11-17T04:53:21.352Z,0.00
2017-11-17T04:54:21.340Z,0.00
2017-11-17T04:55:21.344Z,0.00
2017-11-17T04:56:21.318Z,0.00
2017-11-17T04:57:21.304Z,0.00
2017-11-17T04:58:21.295Z,0.00
2017-11-17T04:59:21.278Z,0.00
2017-11-17T05:00:21.268Z,0.00
2017-11-17T05:01:21.264Z,0.00
2017-11-17T05:02:21.241Z,0.00
2017-11-17T05:03:21.230Z,0.00
2017-11-17T05:04:21.228Z,0.00
2017-11-17T05:05:21.205Z,0.00
2017-11-17T05:06:21.192Z,0.00
2017-11-17T05:07:21.184Z,0.00
2017-11-17T05:08:21.177Z,0.00
2017-11-17T05:09:21.155Z,0.00
2017-11-17T05:10:21.147Z,0.00
2017-11-17T05:11:21.153Z,0.00
2017-11-17T05:12:21.132Z,0.00
2017-11-17T05:13:21.110Z,0.00
2017-11-17T05:14:21.097Z,0.00
2017-11-17T05:15:21.083Z,0.00
2017-11-17T05:16:21.078Z,0.00
2017-11-17T05:17:21.081Z,0.00
2017-11-17T05:18:21.047Z,0.00
2017-11-17T05:19:21.035Z,0.00
2017-11-17T05:20:21.026Z,0.00
2017-11-17T05:21:21.014Z,0.00
2017-11-17T05:22:21.012Z,0.00
2017-11-17T05:23:20.987Z,0.00
2017-11-17T05:24:20.980Z,0.00
2017-11-17T05:25:20.961Z,0.00
2017-11-17T05:26:20.952Z,0.00
2017-11-17T05:27:20.948Z,0.00
2017-11-17T05:28:20.924Z,0.00
2017-11-17T05:29:20.924Z,0.00
2017-11-17T05:30:20.928Z,0.00
2017-11-17T05:31:20.898Z,0.00
2017-11-17T05:32:20.887Z,0.00
2017-11-17T05:33:20.882Z,0.00
2017-11-17T05:34:20.856Z,0.00
2017-11-17T05:35:20.839Z,0.00
2017-11-17T05:36:20.827Z,0.00
2017-11-17T05:37:20.817Z,0.00
2017-11-17T05:38:20.809Z,0.00
2017-11-17T05:39:20.790Z,0.00
2017-11-17T05:40:20.776Z,0.00
2017-11-17T05:41:20.765Z,0.00
2017-11-17T05:42:20.760Z,0.00
2017-11-17T05:43:20.753Z,0.00
2017-11-17T05:44:20.727Z,0.00
2017-11-17T05:45:20.714Z,0.00
2017-11-17T05:46:20.702Z,0.00
2017-11-17T05:47:20.689Z,0.00
2017-11-17T05:48:20.695Z,0.00
2017-11-17T05:49:20.671Z,0.00
2017-11-17T05:50:20.660Z,0.00
2017-11-17T05:51:20.655Z,0.00
2017-11-17T05:52:20.698Z,0.00
2017-11-17T05:53:20.630Z,0.00
2017-11-17T05:54:20.618Z,0.00
2017-11-17T05:55:20.593Z,0.00
2017-11-17T05:56:20.582Z,0.00
2017-11-17T05:57:20.568Z,0.00
2017-11-17T05:58:20.556Z,0.00
2017-11-17T05:59:20.548Z,0.00
2017-11-17T06:00:20.534Z,0.00
2017-11-17T06:01:20.516Z,0.00
2017-11-17T06:02:20.506Z,0.00
2017-11-17T06:03:20.533Z,0.00
2017-11-17T06:04:20.480Z,0.00
2017-11-17T06:05:20.490Z,0.00
2017-11-17T06:06:20.458Z,0.00
2017-11-17T06:07:20.444Z,0.00
2017-11-17T06:08:20.432Z,0.00
2017-11-17T06:09:20.417Z,0.00
2017-11-17T06:10:20.419Z,0.00
2017-11-17T06:11:20.399Z,0.00
2017-11-17T06:12:20.377Z,0.00
2017-11-17T06:13:20.366Z,0.00
2017-11-17T06:14:20.354Z,0.00
2017-11-17T06:15:20.355Z,0.00
2017-11-17T06:16:20.328Z,0.00
2017-11-17T06:17:20.315Z,4.00
2017-11-17T06:18:20.327Z,4.00
2017-11-17T06:19:20.294Z,4.00
2017-11-17T06:20:20.280Z,4.00
2017-11-17T06:21:20.269Z,4.00
2017-11-17T06:22:20.252Z,8.00
2017-11-17T06:23:20.249Z,4.00
2017-11-17T06:24:20.226Z,8.00
2017-11-17T06:25:20.215Z,8.00
2017-11-17T06:26:20.233Z,8.00
2017-11-17T06:27:20.190Z,12.00
2017-11-17T06:28:20.176Z,12.00
2017-11-17T06:29:20.162Z,20.00
2017-11-17T06:30:20.156Z,20.00
2017-11-17T06:31:20.142Z,24.00
2017-11-17T06:32:20.124Z,28.00
2017-11-17T06:33:20.113Z,32.00
2017-11-17T06:34:20.104Z,40.00
2017-11-17T06:35:20.089Z,44.00
2017-11-17T06:36:20.074Z,52.00
2017-11-17T06:37:20.076Z,60.00
2017-11-17T06:38:20.056Z,68.00
2017-11-17T06:39:20.046Z,80.00
2017-11-17T06:40:20.026Z,92.00
2017-11-17T06:41:20.010Z,104.00
2017-11-17T06:42:20.008Z,116.00
2017-11-17T06:43:19.989Z,132.00
2017-11-17T06:44:19.972Z,148.00
2017-11-17T06:45:19.960Z,164.00
2017-11-17T06:46:19.952Z,180.00
2017-11-17T06:47:19.936Z,200.00
2017-11-17T06:48:19.925Z,224.00
2017-11-17T06:49:19.910Z,244.00
2017-11-17T06:50:19.897Z,268.00
2017-11-17T06:51:19.886Z,288.00
2017-11-17T06:52:19.869Z,312.00
2017-11-17T06:53:19.868Z,336.00
2017-11-17T06:54:20.391Z,364.00
2017-11-17T06:55:19.837Z,396.00
2017-11-17T06:56:19.819Z,420.00
2017-11-17T06:57:19.808Z,452.00
2017-11-17T06:58:19.804Z,484.00
2017-11-17T06:59:19.784Z,512.00
2017-11-17T07:00:19.775Z,548.00
2017-11-17T07:01:19.755Z,580.00
2017-11-17T07:02:19.744Z,616.00
2017-11-17T07:03:19.731Z,652.00
2017-11-17T07:04:19.718Z,688.00
2017-11-17T07:05:19.709Z,724.00
2017-11-17T07:06:19.691Z,764.00
2017-11-17T07:07:19.680Z,804.00
2017-11-17T07:08:19.666Z,844.00
2017-11-17T07:09:19.657Z,888.00
2017-11-17T07:10:19.641Z,928.00
2017-11-17T07:11:19.630Z,972.00
2017-11-17T07:12:19.615Z,1020.00
2017-11-17T07:13:19.602Z,1064.00
2017-11-17T07:14:19.595Z,1104.00
2017-11-17T07:15:19.586Z,1152.00
2017-11-17T07:16:19.562Z,1200.00
2017-11-17T07:17:19.550Z,1252.00
2017-11-17T07:18:19.538Z,1300.00
2017-11-17T07:19:19.529Z,1348.00
2017-11-17T07:20:19.512Z,1396.00
2017-11-17T07:21:19.511Z,1444.00
2017-11-17T07:22:19.492Z,1492.00
2017-11-17T07:23:19.474Z,1544.00
2017-11-17T07:24:19.479Z,1592.00
2017-11-17T07:25:19.467Z,1640.00
2017-11-17T07:26:19.456Z,1692.00
2017-11-17T07:27:19.436Z,1772.00
2017-11-17T07:28:19.410Z,1828.00
2017-11-17T07:29:19.438Z,1848.00
2017-11-17T07:30:19.407Z,1892.00
2017-11-17T07:31:19.378Z,1940.00
2017-11-17T07:32:19.367Z,1992.00
2017-11-17T07:33:19.346Z,2036.00
2017-11-17T07:34:19.472Z,2092.00
2017-11-17T07:35:19.340Z,2140.00
2017-11-17T07:36:19.337Z,2220.00
2017-11-17T07:37:19.299Z,2512.00
2017-11-17T07:38:19.284Z,2344.00
2017-11-17T07:39:19.273Z,2336.00
2017-11-17T07:40:19.297Z,2380.00
2017-11-17T07:41:19.479Z,2432.00
2017-11-17T07:42:19.291Z,2480.00
2017-11-17T07:43:19.234Z,2528.00
2017-11-17T07:44:19.239Z,2596.00
2017-11-17T07:45:19.210Z,2644.00
2017-11-17T07:46:19.187Z,2704.00
2017-11-17T07:47:19.169Z,2828.00
2017-11-17T07:48:19.154Z,2908.00
2017-11-17T07:49:19.148Z,2888.00
2017-11-17T07:50:19.137Z,2880.00
2017-11-17T07:51:19.136Z,2932.00
2017-11-17T07:52:19.110Z,2984.00
2017-11-17T07:53:19.093Z,3044.00
2017-11-17T07:54:19.092Z,3104.00
2017-11-17T07:55:19.069Z,3132.00
2017-11-17T07:56:19.068Z,3248.00
2017-11-17T07:57:19.047Z,3276.00
2017-11-17T07:58:19.039Z,3484.00
2017-11-17T07:59:19.017Z,3500.00
2017-11-17T08:00:19.005Z,3460.00
2017-11-17T08:01:18.997Z,3480.00
2017-11-17T08:02:18.981Z,3536.00
2017-11-17T08:03:18.969Z,3580.00
2017-11-17T08:04:18.958Z,3596.00
2017-11-17T08:05:18.946Z,3644.00
2017-11-17T08:06:18.934Z,3764.00
2017-11-17T08:07:18.929Z,3796.00
2017-11-17T08:08:18.906Z,3796.00
2017-11-17T08:09:18.893Z,3896.00
2017-11-17T08:10:18.880Z,4036.00
2017-11-17T08:11:18.868Z,4012.00
2017-11-17T08:12:18.855Z,4132.00
2017-11-17T08:13:18.840Z,4176.00
2017-11-17T08:14:18.829Z,4180.00
2017-11-17T08:15:18.814Z,4256.00
2017-11-17T08:16:18.802Z,4772.00
2017-11-17T08:17:18.790Z,5000.00
2017-11-17T08:18:18.776Z,4760.00
2017-11-17T08:19:18.764Z,4888.00
2017-11-17T08:20:18.752Z,5200.00
2017-11-17T08:21:18.761Z,6012.00
2017-11-17T08:22:18.726Z,6804.00
2017-11-17T08:23:18.719Z,7868.00
2017-11-17T08:24:19.389Z,9764.00
2017-11-17T08:25:18.692Z,13456.00
2017-11-17T08:26:18.679Z,17536.00
2017-11-17T08:27:18.669Z,17408.00
2017-11-17T08:28:18.654Z,15200.00
2017-11-17T08:29:18.641Z,17440.00
2017-11-17T08:30:18.634Z,20928.00
2017-11-17T08:31:18.619Z,20512.00
2017-11-17T08:32:18.613Z,20768.00
2017-11-17T08:33:18.595Z,18976.00
2017-11-17T08:34:18.587Z,21792.00
2017-11-17T08:35:18.570Z,21952.00
2017-11-17T08:36:18.562Z,22592.00
2017-11-17T08:37:18.551Z,23712.00
2017-11-17T08:38:18.538Z,24384.00
2017-11-17T08:39:18.529Z,25152.00
2017-11-17T08:40:18.516Z,25600.00
2017-11-17T08:41:18.506Z,26016.00
2017-11-17T08:42:18.497Z,25760.00
2017-11-17T08:43:18.492Z,25408.00
2017-11-17T08:44:18.479Z,25568.00
2017-11-17T08:45:18.471Z,25984.00
2017-11-17T08:46:18.456Z,26976.00
2017-11-17T08:47:18.446Z,27616.00
2017-11-17T08:48:18.448Z,27520.00
2017-11-17T08:49:18.428Z,27136.00
2017-11-17T08:50:18.417Z,27680.00
2017-11-17T08:51:18.410Z,28576.00
2017-11-17T08:52:18.405Z,30240.00
2017-11-17T08:53:18.396Z,31008.00
2017-11-17T08:54:18.386Z,30720.00
2017-11-17T08:55:18.397Z,30080.00
2017-11-17T08:56:18.406Z,29952.00
2017-11-17T08:57:18.359Z,30144.00
2017-11-17T08:58:18.357Z,30528.00
2017-11-17T08:59:18.353Z,31328.00
2017-11-17T09:00:18.338Z,32288.00
2017-11-17T09:01:18.328Z,32704.00
2017-11-17T09:02:18.332Z,33024.00
2017-11-17T09:03:18.318Z,33760.00
2017-11-17T09:04:18.309Z,33920.00
2017-11-17T09:05:18.304Z,33856.00
2017-11-17T09:06:18.298Z,33728.00
2017-11-17T09:07:18.294Z,34112.00
2017-11-17T09:08:18.288Z,34144.00
2017-11-17T09:09:18.276Z,34592.00
2017-11-17T09:10:18.283Z,33760.00
2017-11-17T09:11:18.265Z,32928.00
2017-11-17T09:12:18.259Z,32352.00
2017-11-17T09:13:18.261Z,33280.00
2017-11-17T09:14:18.248Z,34432.00
2017-11-17T09:15:18.249Z,35712.00
2017-11-17T09:16:18.237Z,36960.00
2017-11-17T09:17:18.233Z,37248.00
2017-11-17T09:18:18.232Z,36960.00
2017-11-17T09:19:18.218Z,36000.00
2017-11-17T09:20:18.214Z,35808.00
2017-11-17T09:21:18.208Z,35936.00
2017-11-17T09:22:18.206Z,35776.00
2017-11-17T09:23:18.206Z,36000.00
2017-11-17T09:24:18.195Z,36640.00
2017-11-17T09:25:18.191Z,36768.00
2017-11-17T09:26:18.189Z,37472.00
2017-11-17T09:27:18.186Z,38400.00
2017-11-17T09:28:18.176Z,39168.00
2017-11-17T09:29:18.193Z,39040.00
2017-11-17T09:30:18.171Z,39008.00
2017-11-17T09:31:18.171Z,38880.00
2017-11-17T09:32:18.163Z,38624.00
2017-11-17T09:33:18.158Z,39296.00
2017-11-17T09:34:18.157Z,41088.00
2017-11-17T09:35:18.150Z,41856.00
2017-11-17T09:36:18.145Z,42816.00
2017-11-17T09:37:18.149Z,43232.00
2017-11-17T09:38:18.138Z,43104.00
2017-11-17T09:39:18.137Z,42688.00
2017-11-17T09:40:18.132Z,43008.00
2017-11-17T09:41:18.132Z,42688.00
2017-11-17T09:42:18.140Z,43104.00
2017-11-17T09:43:18.126Z,42816.00
2017-11-17T09:44:18.123Z,42720.00
2017-11-17T09:45:18.143Z,42944.00
2017-11-17T09:46:18.116Z,44096.00
2017-11-17T09:47:18.121Z,44224.00
2017-11-17T09:48:18.113Z,44096.00
2017-11-17T09:49:18.108Z,43936.00
2017-11-17T09:50:18.106Z,44064.00
2017-11-17T09:51:18.105Z,43168.00
2017-11-17T09:52:18.103Z,43552.00
2017-11-17T09:53:18.106Z,44288.00
2017-11-17T09:54:18.111Z,45504.00
2017-11-17T09:55:18.094Z,45664.00
2017-11-17T09:56:18.094Z,44512.00
2017-11-17T09:57:18.090Z,44128.00
2017-11-17T09:58:18.088Z,44672.00
2017-11-17T09:59:18.098Z,44544.00
2017-11-17T10:00:18.085Z,45056.00
2017-11-17T10:01:18.080Z,45696.00
2017-11-17T10:02:18.084Z,46304.00
2017-11-17T10:03:18.079Z,46208.00
2017-11-17T10:04:18.079Z,46784.00
2017-11-17T10:05:18.082Z,47456.00
2017-11-17T10:06:18.088Z,48832.00
2017-11-17T10:07:18.072Z,48928.00
2017-11-17T10:08:18.069Z,47136.00
2017-11-17T10:09:18.068Z,46688.00
2017-11-17T10:10:18.073Z,46048.00
2017-11-17T10:11:18.075Z,46592.00
2017-11-17T10:12:18.068Z,47488.00
2017-11-17T10:13:18.072Z,48928.00
2017-11-17T10:14:18.063Z,49440.00
2017-11-17T10:15:18.065Z,50080.00
2017-11-17T10:16:18.063Z,50240.00
2017-11-17T10:17:18.072Z,50656.00
2017-11-17T10:18:18.068Z,51040.00
2017-11-17T10:19:18.073Z,51296.00
2017-11-17T10:20:18.061Z,52064.00
2017-11-17T10:21:18.056Z,52608.00
2017-11-17T10:22:18.056Z,53376.00
2017-11-17T10:23:18.056Z,54624.00
2017-11-17T10:24:18.056Z,55168.00
2017-11-17T10:25:18.061Z,54592.00
2017-11-17T10:26:18.068Z,53952.00
2017-11-17T10:27:18.062Z,52928.00
2017-11-17T10:28:18.062Z,52736.00
2017-11-17T10:29:18.055Z,53184.00
2017-11-17T10:30:18.055Z,53824.00
2017-11-17T10:31:18.064Z,53760.00
2017-11-17T10:32:18.062Z,53632.00
2017-11-17T10:33:18.060Z,53248.00
2017-11-17T10:34:18.057Z,52416.00
2017-11-17T10:35:18.055Z,51936.00
2017-11-17T10:36:18.058Z,51072.00
2017-11-17T10:37:18.054Z,50304.00
2017-11-17T10:38:18.053Z,49504.00
2017-11-17T10:39:18.053Z,51712.00
2017-11-17T10:40:18.059Z,54400.00
2017-11-17T10:41:18.053Z,55680.00
2017-11-17T10:42:18.055Z,54560.00
2017-11-17T10:43:18.067Z,55168.00
2017-11-17T10:44:18.054Z,55616.00
2017-11-17T10:45:18.055Z,55680.00
2017-11-17T10:46:18.055Z,54400.00
2017-11-17T10:47:18.055Z,54336.00
2017-11-17T10:48:18.054Z,52512.00
2017-11-17T10:49:18.057Z,50976.00
2017-11-17T10:50:18.056Z,49504.00
2017-11-17T10:51:18.069Z,47744.00
2017-11-17T10:52:18.058Z,46912.00
2017-11-17T10:53:18.059Z,43040.00
2017-11-17T10:54:18.060Z,39520.00
2017-11-17T10:55:18.062Z,36288.00
2017-11-17T10:56:18.066Z,32512.00
2017-11-17T10:57:18.065Z,30016.00
2017-11-17T10:58:18.062Z,28320.00
2017-11-17T10:59:18.066Z,27008.00
2017-11-17T11:00:18.065Z,26240.00
2017-11-17T11:01:18.095Z,25568.00
2017-11-17T11:02:18.070Z,25248.00
2017-11-17T11:03:18.067Z,24416.00
2017-11-17T11:04:18.065Z,24128.00
2017-11-17T11:05:18.066Z,23872.00
2017-11-17T11:06:18.069Z,23808.00
2017-11-17T11:07:18.076Z,23808.00
2017-11-17T11:08:18.078Z,23776.00
2017-11-17T11:09:18.071Z,24128.00
2017-11-17T11:10:18.075Z,24640.00
2017-11-17T11:11:18.073Z,25728.00
2017-11-17T11:12:18.074Z,26976.00
2017-11-17T11:13:18.077Z,28768.00
2017-11-17T11:14:18.078Z,31488.00
2017-11-17T11:15:18.082Z,36672.00
2017-11-17T11:16:18.081Z,43200.00
2017-11-17T11:17:18.082Z,48416.00
2017-11-17T11:18:18.082Z,58272.00
2017-11-17T11:19:18.082Z,62080.00
2017-11-17T11:20:18.085Z,62912.00
2017-11-17T11:21:18.086Z,66624.00
2017-11-17T11:22:18.087Z,73440.00
2017-11-17T11:23:18.092Z,66112.00
2017-11-17T11:24:18.090Z,64768.00
2017-11-17T11:25:18.092Z,75296.00
2017-11-17T11:26:18.099Z,72608.00
2017-11-17T11:27:18.102Z,61824.00
2017-11-17T11:28:18.095Z,58752.00
2017-11-17T11:29:18.096Z,61504.00
2017-11-17T11:30:18.097Z,59680.00
2017-11-17T11:31:18.100Z,59200.00
2017-11-17T11:32:18.098Z,55936.00
2017-11-17T11:33:18.104Z,48800.00
2017-11-17T11:34:18.104Z,52160.00
2017-11-17T11:35:18.105Z,57952.00
2017-11-17T11:36:18.102Z,51328.00
2017-11-17T11:37:18.106Z,49856.00
2017-11-17T11:38:18.105Z,55680.00
2017-11-17T11:39:18.109Z,54720.00
2017-11-17T11:40:18.110Z,54784.00
2017-11-17T11:41:18.114Z,56704.00
2017-11-17T11:42:18.114Z,52896.00
2017-11-17T11:43:18.111Z,52288.00
2017-11-17T11:44:18.130Z,49248.00
2017-11-17T11:45:18.133Z,44448.00
2017-11-17T11:46:18.121Z,37888.00
2017-11-17T11:47:18.118Z,33472.00
2017-11-17T11:48:18.117Z,29952.00
2017-11-17T11:49:18.120Z,28768.00
2017-11-17T11:50:18.120Z,30592.00
2017-11-17T11:51:18.120Z,34080.00
2017-11-17T11:52:18.120Z,43840.00
2017-11-17T11:53:18.121Z,51520.00
2017-11-17T11:54:18.121Z,43456.00
2017-11-17T11:55:18.125Z,30048.00
2017-11-17T11:56:18.124Z,24192.00
2017-11-17T11:57:18.125Z,21440.00
2017-11-17T11:58:18.129Z,21056.00
2017-11-17T11:59:18.129Z,20032.00
2017-11-17T12:00:18.128Z,18784.00
2017-11-17T12:01:18.129Z,12748.00
2017-11-17T12:02:18.129Z,6000.00
2017-11-17T12:03:18.131Z,5892.00
2017-11-17T12:04:18.132Z,16608.00
2017-11-17T12:05:18.134Z,16256.00
2017-11-17T12:06:18.135Z,16224.00
2017-11-17T12:07:18.131Z,15968.00
2017-11-17T12:08:18.133Z,15712.00
2017-11-17T12:09:18.131Z,15488.00
2017-11-17T12:10:18.131Z,15264.00
2017-11-17T12:11:18.131Z,15032.00
2017-11-17T12:12:18.132Z,14796.00
2017-11-17T12:13:18.133Z,14724.00
2017-11-17T12:14:18.131Z,15136.00
2017-11-17T12:15:18.158Z,13144.00
2017-11-17T12:16:18.140Z,15024.00
2017-11-17T12:17:18.144Z,15056.00
2017-11-17T12:18:18.135Z,14916.00
2017-11-17T12:19:18.132Z,14592.00
2017-11-17T12:20:18.130Z,14256.00
2017-11-17T12:21:18.127Z,13952.00
2017-11-17T12:22:18.129Z,13812.00
2017-11-17T12:23:18.127Z,13796.00
2017-11-17T12:24:18.127Z,13516.00
2017-11-17T12:25:18.124Z,13368.00
2017-11-17T12:26:18.129Z,13232.00
2017-11-17T12:27:18.125Z,13168.00
2017-11-17T12:28:18.124Z,13300.00
2017-11-17T12:29:18.121Z,13288.00
2017-11-17T12:30:18.127Z,13548.00
2017-11-17T12:31:18.130Z,6896.00
2017-11-17T12:32:18.135Z,6808.00
2017-11-17T12:33:18.120Z,7068.00
2017-11-17T12:34:18.122Z,7708.00
2017-11-17T12:35:18.121Z,6880.00